sensor_id;sensor_type;location;lat;lon;timestamp;pressure;altitude;pressure_sealevel;temperature;humidity
1207;BME280;593;53.184;8.216;2023-02-23T00:01:09;100796.41;;;10.55;100.00
1207;BME280;593;53.184;8.216;2023-02-23T00:03:34;100788.03;;;10.52;100.00
1207;BME280;593;53.184;8.216;2023-02-23T00:06:01;100792.13;;;10.49;100.00
1207;BME280;593;53.184;8.216;2023-02-23T00:08:27;100798.59;;;10.53;100.00
1207;BME280;593;53.184;8.216;2023-02-23T00:10:53;100802.16;;;10.54;100.00
1207;BME280;593;53.184;8.216;2023-02-23T00:13:22;100800.81;;;10.51;100.00
1207;BME280;593;53.184;8.216;2023-02-23T00:15:48;100800.81;;;10.51;100.00
1207;BME280;593;53.184;8.216;2023-02-23T00:18:13;100794.03;;;10.44;100.00
1207;BME280;593;53.184;8.216;2023-02-23T00:20:38;100800.28;;;10.49;100.00
1207;BME280;593;53.184;8.216;2023-02-23T00:23:08;100797.56;;;10.49;100.00
1207;BME280;593;53.184;8.216;2023-02-23T00:25:33;100799.44;;;10.49;100.00
1207;BME280;593;53.184;8.216;2023-02-23T00:28:03;100804.91;;;10.44;100.00
1207;BME280;593;53.184;8.216;2023-02-23T00:30:31;100805.97;;;10.48;100.00
1207;BME280;593;53.184;8.216;2023-02-23T00:32:56;100815.25;;;10.47;100.00
1207;BME280;593;53.184;8.216;2023-02-23T00:35:22;100816.03;;;10.47;100.00
1207;BME280;593;53.184;8.216;2023-02-23T00:37:49;100811.44;;;10.43;100.00
1207;BME280;593;53.184;8.216;2023-02-23T00:40:15;100808.69;;;10.48;100.00
1207;BME280;593;53.184;8.216;2023-02-23T00:42:45;100815.25;;;10.47;100.00
1207;BME280;593;53.184;8.216;2023-02-23T00:45:13;100811.97;;;10.45;100.00
1207;BME280;593;53.184;8.216;2023-02-23T00:47:40;100817.13;;;10.46;100.00
1207;BME280;593;53.184;8.216;2023-02-23T00:50:08;100810.34;;;10.44;100.00
1207;BME280;593;53.184;8.216;2023-02-23T00:52:36;100810.59;;;10.42;100.00
1207;BME280;593;53.184;8.216;2023-02-23T00:55:01;100809.78;;;10.47;100.00
1207;BME280;593;53.184;8.216;2023-02-23T00:57:27;100813.59;;;10.46;100.00
1207;BME280;593;53.184;8.216;2023-02-23T00:59:52;100809.78;;;10.47;100.00
1207;BME280;593;53.184;8.216;2023-02-23T01:02:17;100806.25;;;10.46;100.00
1207;BME280;593;53.184;8.216;2023-02-23T01:04:43;100812.78;;;10.45;100.00
1207;BME280;593;53.184;8.216;2023-02-23T01:07:08;100810.59;;;10.47;100.00
1207;BME280;593;53.184;8.216;2023-02-23T01:09:37;100814.41;;;10.46;100.00
1207;BME280;593;53.184;8.216;2023-02-23T01:12:02;100817.97;;;10.47;100.00
1207;BME280;593;53.184;8.216;2023-02-23T01:14:31;100809.78;;;10.47;100.00
1207;BME280;593;53.184;8.216;2023-02-23T01:16:57;100808.72;;;10.43;100.00
1207;BME280;593;53.184;8.216;2023-02-23T01:19:23;100815.78;;;10.44;100.00
1207;BME280;593;53.184;8.216;2023-02-23T01:21:48;100809.50;;;10.48;100.00
1207;BME280;593;53.184;8.216;2023-02-23T01:24:14;100793.50;;;10.42;100.00
1207;BME280;593;53.184;8.216;2023-02-23T01:26:42;100807.88;;;10.47;100.00
1207;BME280;593;53.184;8.216;2023-02-23T01:29:11;100816.28;;;10.51;100.00
1207;BME280;593;53.184;8.216;2023-02-23T01:31:38;100808.97;;;10.51;100.00
1207;BME280;593;53.184;8.216;2023-02-23T01:34:05;100811.38;;;10.53;100.00
1207;BME280;593;53.184;8.216;2023-02-23T01:36:36;100799.72;;;10.47;100.00
1207;BME280;593;53.184;8.216;2023-02-23T01:39:04;100808.97;;;10.51;100.00
1207;BME280;593;53.184;8.216;2023-02-23T01:41:32;100812.75;;;10.55;100.00
1207;BME280;593;53.184;8.216;2023-02-23T01:46:38;100803.53;;;10.51;100.00
1207;BME280;593;53.184;8.216;2023-02-23T01:49:07;100802.97;;;10.54;100.00
1207;BME280;593;53.184;8.216;2023-02-23T01:51:37;100803.50;;;10.56;100.00
1207;BME280;593;53.184;8.216;2023-02-23T01:56:41;100790.19;;;10.45;100.00
1207;BME280;593;53.184;8.216;2023-02-23T01:59:09;100798.59;;;10.53;100.00
1207;BME280;593;53.184;8.216;2023-02-23T02:01:37;100803.22;;;10.58;100.00
1207;BME280;593;53.184;8.216;2023-02-23T02:04:05;100805.66;;;10.59;100.00
1207;BME280;593;53.184;8.216;2023-02-23T02:06:31;100787.44;;;10.55;100.00
1207;BME280;593;53.184;8.216;2023-02-23T02:09:06;100786.34;;;10.56;100.00
1207;BME280;593;53.184;8.216;2023-02-23T02:11:33;100798.28;;;10.60;100.00
1207;BME280;593;53.184;8.216;2023-02-23T02:14:25;100790.44;;;10.58;100.00
1207;BME280;593;53.184;8.216;2023-02-23T02:17:27;100797.78;;;10.58;100.00
1207;BME280;593;53.184;8.216;2023-02-23T02:37:29;100783.09;;;10.59;100.00
1207;BME280;593;53.184;8.216;2023-02-23T02:40:18;100787.97;;;10.62;100.00
1207;BME280;593;53.184;8.216;2023-02-23T02:43:43;100783.63;;;10.61;100.00
1207;BME280;593;53.184;8.216;2023-02-23T02:46:32;100794.50;;;10.61;100.00
1207;BME280;593;53.184;8.216;2023-02-23T02:51:34;100794.78;;;10.59;100.00
1207;BME280;593;53.184;8.216;2023-02-23T02:56:54;100792.34;;;10.53;100.00
1207;BME280;593;53.184;8.216;2023-02-23T02:59:25;100791.81;;;10.56;100.00
1207;BME280;593;53.184;8.216;2023-02-23T03:02:17;100788.78;;;10.57;100.00
1207;BME280;593;53.184;8.216;2023-02-23T03:05:14;100797.78;;;10.58;100.00
1207;BME280;593;53.184;8.216;2023-02-23T03:11:22;100788.03;;;10.47;100.00
1207;BME280;593;53.184;8.216;2023-02-23T03:14:35;100799.44;;;10.54;100.00
1207;BME280;593;53.184;8.216;2023-02-23T03:17:45;100801.63;;;10.52;100.00
1207;BME280;593;53.184;8.216;2023-02-23T03:26:31;100805.94;;;10.53;100.00
1207;BME280;593;53.184;8.216;2023-02-23T03:32:22;100792.38;;;10.48;100.00
1207;BME280;593;53.184;8.216;2023-02-23T03:40:53;100807.84;;;10.52;100.00
1207;BME280;593;53.184;8.216;2023-02-23T03:43:42;100800.53;;;10.48;100.00
1207;BME280;593;53.184;8.216;2023-02-23T03:46:28;100804.34;;;10.52;100.00
1207;BME280;593;53.184;8.216;2023-02-23T03:49:14;100810.31;;;10.49;100.00
1207;BME280;593;53.184;8.216;2023-02-23T03:52:25;100825.28;;;10.51;100.00
1207;BME280;593;53.184;8.216;2023-02-23T03:55:23;100825.28;;;10.51;100.00
1207;BME280;593;53.184;8.216;2023-02-23T03:58:12;100819.84;;;10.51;100.00
1207;BME280;593;53.184;8.216;2023-02-23T04:01:00;100818.50;;;10.49;100.00
1207;BME280;593;53.184;8.216;2023-02-23T04:03:47;100819.31;;;10.49;100.00
1207;BME280;593;53.184;8.216;2023-02-23T04:06:37;100820.09;;;10.50;100.00
1207;BME280;593;53.184;8.216;2023-02-23T04:09:22;100817.94;;;10.52;100.00
1207;BME280;593;53.184;8.216;2023-02-23T04:12:42;100827.72;;;10.53;100.00
1207;BME280;593;53.184;8.216;2023-02-23T04:15:34;100832.31;;;10.52;100.00
1207;BME280;593;53.184;8.216;2023-02-23T04:18:03;100829.59;;;10.52;100.00
1207;BME280;593;53.184;8.216;2023-02-23T04:20:29;100829.59;;;10.52;100.00
1207;BME280;593;53.184;8.216;2023-02-23T04:22:55;100840.22;;;10.54;100.00
1207;BME280;593;53.184;8.216;2023-02-23T04:25:20;100833.97;;;10.48;100.00
1207;BME280;593;53.184;8.216;2023-02-23T04:27:49;100834.78;;;10.54;100.00
1207;BME280;593;53.184;8.216;2023-02-23T04:30:15;100826.09;;;10.52;100.00
1207;BME280;593;53.184;8.216;2023-02-23T04:32:40;100831.53;;;10.52;100.00
1207;BME280;593;53.184;8.216;2023-02-23T04:35:06;100829.59;;;10.52;100.00
1207;BME280;593;53.184;8.216;2023-02-23T04:37:31;100828.53;;;10.53;100.00
1207;BME280;593;53.184;8.216;2023-02-23T04:39:57;100821.47;;;10.47;100.00
1207;BME280;593;53.184;8.216;2023-02-23T04:42:22;100827.72;;;10.53;100.00
1207;BME280;593;53.184;8.216;2023-02-23T04:44:48;100822.81;;;10.50;100.00
1207;BME280;593;53.184;8.216;2023-02-23T04:47:14;100831.25;;;10.53;100.00
1207;BME280;593;53.184;8.216;2023-02-23T04:49:40;100835.88;;;10.53;100.00
1207;BME280;593;53.184;8.216;2023-02-23T04:52:05;100837.22;;;10.50;100.00
1207;BME280;593;53.184;8.216;2023-02-23T04:54:31;100836.69;;;10.53;100.00
1207;BME280;593;53.184;8.216;2023-02-23T04:56:56;100835.88;;;10.53;100.00
1207;BME280;593;53.184;8.216;2023-02-23T04:59:21;100840.47;;;10.52;100.00
1207;BME280;593;53.184;8.216;2023-02-23T05:01:47;100840.78;;;10.51;100.00
1207;BME280;593;53.184;8.216;2023-02-23T05:04:12;100838.34;;;10.49;100.00
1207;BME280;593;53.184;8.216;2023-02-23T05:06:38;100835.63;;;10.44;100.00
1207;BME280;593;53.184;8.216;2023-02-23T05:09:03;100833.72;;;10.45;100.00
1207;BME280;593;53.184;8.216;2023-02-23T05:11:30;100837.53;;;10.49;100.00
1207;BME280;593;53.184;8.216;2023-02-23T05:13:55;100843.19;;;10.52;100.00
1207;BME280;593;53.184;8.216;2023-02-23T05:16:21;100822.31;;;10.38;100.00
1207;BME280;593;53.184;8.216;2023-02-23T05:18:46;100839.13;;;10.50;100.00
1207;BME280;593;53.184;8.216;2023-02-23T05:21:12;100832.91;;;10.44;100.00
1207;BME280;593;53.184;8.216;2023-02-23T05:23:37;100836.69;;;10.48;100.00
1207;BME280;593;53.184;8.216;2023-02-23T05:26:06;100846.75;;;10.48;100.00
1207;BME280;593;53.184;8.216;2023-02-23T05:28:33;100845.16;;;10.47;100.00
1207;BME280;593;53.184;8.216;2023-02-23T05:30:59;100845.69;;;10.44;100.00
1207;BME280;593;53.184;8.216;2023-02-23T05:33:25;100848.41;;;10.44;100.00
1207;BME280;593;53.184;8.216;2023-02-23T05:35:50;100832.13;;;10.39;100.00
1207;BME280;593;53.184;8.216;2023-02-23T05:38:15;100834.56;;;10.35;100.00
1207;BME280;593;53.184;8.216;2023-02-23T05:40:41;100848.16;;;10.40;100.00
1207;BME280;593;53.184;8.216;2023-02-23T05:43:06;100850.03;;;10.40;100.00
1207;BME280;593;53.184;8.216;2023-02-23T05:45:32;100858.19;;;10.40;100.00
1207;BME280;593;53.184;8.216;2023-02-23T05:47:58;100854.94;;;10.38;100.00
1207;BME280;593;53.184;8.216;2023-02-23T05:50:24;100844.91;;;10.33;100.00
1207;BME280;593;53.184;8.216;2023-02-23T05:52:49;100829.44;;;10.23;100.00
1207;BME280;593;53.184;8.216;2023-02-23T05:55:14;100852.78;;;10.35;100.00
1207;BME280;593;53.184;8.216;2023-02-23T05:57:40;100834.88;;;10.23;100.00
1207;BME280;593;53.184;8.216;2023-02-23T06:00:06;100856.59;;;10.34;100.00
1207;BME280;593;53.184;8.216;2023-02-23T06:02:33;100854.44;;;10.30;100.00
1207;BME280;593;53.184;8.216;2023-02-23T06:04:58;100860.94;;;10.35;100.00
1207;BME280;593;53.184;8.216;2023-02-23T06:07:24;100863.94;;;10.33;100.00
1207;BME280;593;53.184;8.216;2023-02-23T06:09:49;100863.69;;;10.29;100.00
1207;BME280;593;53.184;8.216;2023-02-23T06:12:14;100871.56;;;10.31;100.00
1207;BME280;593;53.184;8.216;2023-02-23T06:14:40;100863.94;;;10.33;100.00
1207;BME280;593;53.184;8.216;2023-02-23T06:17:05;100872.91;;;10.34;100.00
1207;BME280;593;53.184;8.216;2023-02-23T06:19:32;100879.97;;;10.35;100.00
1207;BME280;593;53.184;8.216;2023-02-23T06:21:57;100874.53;;;10.35;100.00
1207;BME280;593;53.184;8.216;2023-02-23T06:24:23;100877.53;;;10.33;100.00
1207;BME280;593;53.184;8.216;2023-02-23T06:26:49;100885.16;;;10.36;100.00
1207;BME280;593;53.184;8.216;2023-02-23T06:29:14;100876.16;;;10.36;100.00
1207;BME280;593;53.184;8.216;2023-02-23T06:31:41;100878.06;;;10.35;100.00
1207;BME280;593;53.184;8.216;2023-02-23T06:34:07;100876.44;;;10.34;100.00
1207;BME280;593;53.184;8.216;2023-02-23T06:36:32;100876.44;;;10.34;100.00
1207;BME280;593;53.184;8.216;2023-02-23T06:38:58;100889.22;;;10.34;100.00
1207;BME280;593;53.184;8.216;2023-02-23T06:41:24;100843.31;;;10.07;100.00
1207;BME280;593;53.184;8.216;2023-02-23T06:43:50;100872.66;;;10.25;100.00
1207;BME280;593;53.184;8.216;2023-02-23T06:46:16;100881.91;;;10.29;100.00
1207;BME280;593;53.184;8.216;2023-02-23T06:48:41;100884.34;;;10.30;100.00
1207;BME280;593;53.184;8.216;2023-02-23T06:51:07;100886.50;;;10.28;100.00
1207;BME280;593;53.184;8.216;2023-02-23T06:53:32;100883.78;;;10.28;100.00
1207;BME280;593;53.184;8.216;2023-02-23T06:55:58;100888.41;;;10.28;100.00
1207;BME280;593;53.184;8.216;2023-02-23T06:58:23;100890.06;;;10.29;100.00
1207;BME280;593;53.184;8.216;2023-02-23T07:00:49;100884.34;;;10.20;100.00
1207;BME280;593;53.184;8.216;2023-02-23T07:03:14;100898.47;;;10.27;100.00
1207;BME280;593;53.184;8.216;2023-02-23T07:05:40;100904.47;;;10.24;100.00
1207;BME280;593;53.184;8.216;2023-02-23T07:08:05;100905.84;;;10.27;100.00
1207;BME280;593;53.184;8.216;2023-02-23T07:10:31;100909.34;;;10.27;100.00
1207;BME280;593;53.184;8.216;2023-02-23T07:12:57;100912.34;;;10.26;100.00
1207;BME280;593;53.184;8.216;2023-02-23T07:15:23;100906.91;;;10.26;100.00
1207;BME280;593;53.184;8.216;2023-02-23T07:17:48;100910.69;;;10.25;100.00
1207;BME280;593;53.184;8.216;2023-02-23T07:20:17;100910.69;;;10.25;100.00
1207;BME280;593;53.184;8.216;2023-02-23T07:22:42;100906.09;;;10.20;100.00
1207;BME280;593;53.184;8.216;2023-02-23T07:25:08;100909.09;;;10.24;100.00
1207;BME280;593;53.184;8.216;2023-02-23T07:27:33;100919.16;;;10.23;100.00
1207;BME280;593;53.184;8.216;2023-02-23T07:29:59;100906.91;;;10.16;100.00
1207;BME280;593;53.184;8.216;2023-02-23T07:32:27;100913.72;;;10.18;100.00
1207;BME280;593;53.184;8.216;2023-02-23T07:34:52;100916.72;;;10.22;100.00
1207;BME280;593;53.184;8.216;2023-02-23T07:37:17;100920.22;;;10.22;100.00
1207;BME280;593;53.184;8.216;2023-02-23T07:39:43;100918.88;;;10.20;100.00
1207;BME280;593;53.184;8.216;2023-02-23T07:42:08;100922.69;;;10.19;100.00
1207;BME280;593;53.184;8.216;2023-02-23T07:44:34;100927.31;;;10.23;100.00
1207;BME280;593;53.184;8.216;2023-02-23T07:46:59;100938.72;;;10.25;100.00
1207;BME280;593;53.184;8.216;2023-02-23T07:49:24;100942.25;;;10.26;100.00
1207;BME280;593;53.184;8.216;2023-02-23T07:51:50;100945.78;;;10.26;100.00
1207;BME280;593;53.184;8.216;2023-02-23T07:54:15;100946.88;;;10.25;100.00
1207;BME280;593;53.184;8.216;2023-02-23T07:56:41;100953.13;;;10.26;100.00
1207;BME280;593;53.184;8.216;2023-02-23T07:59:06;100950.13;;;10.27;100.00
1207;BME280;593;53.184;8.216;2023-02-23T08:01:31;100932.75;;;10.13;100.00
1207;BME280;593;53.184;8.216;2023-02-23T08:03:57;100932.19;;;10.06;100.00
1207;BME280;593;53.184;8.216;2023-02-23T08:06:22;100955.84;;;10.26;100.00
1207;BME280;593;53.184;8.216;2023-02-23T08:08:47;100934.38;;;10.19;100.00
1207;BME280;593;53.184;8.216;2023-02-23T08:11:13;100968.06;;;10.28;100.00
1207;BME280;593;53.184;8.216;2023-02-23T08:13:39;100946.63;;;10.22;100.00
1207;BME280;593;53.184;8.216;2023-02-23T08:16:05;100963.16;;;10.30;100.00
1207;BME280;593;53.184;8.216;2023-02-23T08:18:30;100960.44;;;10.30;100.00
1207;BME280;593;53.184;8.216;2023-02-23T08:21:02;100962.91;;;10.32;100.00
1207;BME280;593;53.184;8.216;2023-02-23T08:23:29;100962.63;;;10.28;100.00
1207;BME280;593;53.184;8.216;2023-02-23T08:25:55;100964.00;;;10.31;100.00
1207;BME280;593;53.184;8.216;2023-02-23T08:28:21;100967.53;;;10.32;100.00
1207;BME280;593;53.184;8.216;2023-02-23T08:30:46;100967.78;;;10.30;100.00
1207;BME280;593;53.184;8.216;2023-02-23T08:33:12;100965.63;;;10.32;100.00
1207;BME280;593;53.184;8.216;2023-02-23T08:35:37;100961.81;;;10.28;100.00
1207;BME280;593;53.184;8.216;2023-02-23T08:38:03;100958.84;;;10.24;100.00
1207;BME280;593;53.184;8.216;2023-02-23T08:40:28;100971.31;;;10.30;100.00
1207;BME280;593;53.184;8.216;2023-02-23T08:42:54;100968.91;;;10.29;100.00
1207;BME280;593;53.184;8.216;2023-02-23T08:45:19;100971.31;;;10.25;100.00
1207;BME280;593;53.184;8.216;2023-02-23T08:47:44;100967.25;;;10.28;100.00
1207;BME280;593;53.184;8.216;2023-02-23T08:50:11;100968.06;;;10.28;100.00
1207;BME280;593;53.184;8.216;2023-02-23T08:52:37;100971.31;;;10.30;100.00
1207;BME280;593;53.184;8.216;2023-02-23T08:55:04;100975.16;;;10.29;100.00
1207;BME280;593;53.184;8.216;2023-02-23T08:57:32;100975.69;;;10.32;100.00
1207;BME280;593;53.184;8.216;2023-02-23T08:59:58;100976.50;;;10.32;100.00
1207;BME280;593;53.184;8.216;2023-02-23T09:02:23;100961.56;;;10.19;100.00
1207;BME280;593;53.184;8.216;2023-02-23T09:04:49;100979.22;;;10.32;100.00
1207;BME280;593;53.184;8.216;2023-02-23T09:07:16;100980.84;;;10.33;100.00
1207;BME280;593;53.184;8.216;2023-02-23T09:09:42;100980.03;;;10.32;100.00
1207;BME280;593;53.184;8.216;2023-02-23T09:12:07;100976.75;;;10.30;100.00
1207;BME280;593;53.184;8.216;2023-02-23T09:14:33;100977.31;;;10.32;100.00
1207;BME280;593;53.184;8.216;2023-02-23T09:17:00;100991.44;;;10.35;100.00
1207;BME280;593;53.184;8.216;2023-02-23T09:19:25;100980.03;;;10.32;100.00
1207;BME280;593;53.184;8.216;2023-02-23T09:21:52;100987.34;;;10.37;100.00
1207;BME280;593;53.184;8.216;2023-02-23T09:24:19;100975.94;;;10.35;100.00
1207;BME280;593;53.184;8.216;2023-02-23T09:26:46;100983.84;;;10.37;100.00
1207;BME280;593;53.184;8.216;2023-02-23T09:29:11;100990.63;;;10.39;100.00
1207;BME280;593;53.184;8.216;2023-02-23T09:31:37;100992.25;;;10.40;100.00
1207;BME280;593;53.184;8.216;2023-02-23T09:34:03;100994.16;;;10.40;100.00
1207;BME280;593;53.184;8.216;2023-02-23T09:36:29;100996.31;;;10.43;100.00
1207;BME280;593;53.184;8.216;2023-02-23T09:38:56;100986.28;;;10.38;100.00
1207;BME280;593;53.184;8.216;2023-02-23T09:46:56;100992.00;;;10.42;100.00
1207;BME280;593;53.184;8.216;2023-02-23T09:49:28;100997.69;;;10.40;100.00
1207;BME280;593;53.184;8.216;2023-02-23T09:51:58;100998.22;;;10.37;100.00
1207;BME280;593;53.184;8.216;2023-02-23T09:54:28;100981.13;;;10.26;100.00
1207;BME280;593;53.184;8.216;2023-02-23T09:56:54;101004.22;;;10.39;100.00
1207;BME280;593;53.184;8.216;2023-02-23T09:59:23;101009.38;;;10.41;100.00
1207;BME280;593;53.184;8.216;2023-02-23T10:02:20;101008.03;;;10.43;100.00
1207;BME280;593;53.184;8.216;2023-02-23T10:04:48;101004.47;;;10.43;100.00
1207;BME280;593;53.184;8.216;2023-02-23T10:07:25;101000.94;;;10.42;100.00
1207;BME280;593;53.184;8.216;2023-02-23T10:10:11;101006.38;;;10.42;100.00
1207;BME280;593;53.184;8.216;2023-02-23T10:15:35;101013.75;;;10.42;100.00
1207;BME280;593;53.184;8.216;2023-02-23T10:21:01;101018.91;;;10.43;100.00
1207;BME280;593;53.184;8.216;2023-02-23T10:23:39;101019.72;;;10.44;100.00
1207;BME280;593;53.184;8.216;2023-02-23T10:26:13;101011.03;;;10.37;100.00
1207;BME280;593;53.184;8.216;2023-02-23T10:28:40;101015.91;;;10.40;100.00
1207;BME280;593;53.184;8.216;2023-02-23T10:31:26;101026.00;;;10.44;100.00
1207;BME280;593;53.184;8.216;2023-02-23T10:33:55;101028.72;;;10.44;100.00
1207;BME280;593;53.184;8.216;2023-02-23T10:36:44;101025.69;;;10.46;100.00
1207;BME280;593;53.184;8.216;2023-02-23T10:39:12;101008.31;;;10.37;100.00
1207;BME280;593;53.184;8.216;2023-02-23T10:41:38;101022.44;;;10.44;100.00
1207;BME280;593;53.184;8.216;2023-02-23T10:44:05;101026.78;;;10.45;100.00
1207;BME280;593;53.184;8.216;2023-02-23T10:46:38;101023.28;;;10.44;100.00
1207;BME280;593;53.184;8.216;2023-02-23T10:49:06;101026.78;;;10.45;100.00
1207;BME280;593;53.184;8.216;2023-02-23T10:51:36;101034.69;;;10.46;100.00
1207;BME280;593;53.184;8.216;2023-02-23T10:54:37;101032.78;;;10.47;100.00
1207;BME280;593;53.184;8.216;2023-02-23T10:57:04;101016.47;;;10.32;100.00
1207;BME280;593;53.184;8.216;2023-02-23T10:59:32;101034.41;;;10.43;100.00
1207;BME280;593;53.184;8.216;2023-02-23T11:01:58;101034.94;;;10.45;100.00
1207;BME280;593;53.184;8.216;2023-02-23T11:04:27;101032.50;;;10.43;100.00
1207;BME280;593;53.184;8.216;2023-02-23T11:07:16;101032.50;;;10.48;100.00
1207;BME280;593;53.184;8.216;2023-02-23T11:09:41;101024.34;;;10.43;100.00
1207;BME280;593;53.184;8.216;2023-02-23T11:14:47;101018.63;;;10.40;100.00
1207;BME280;593;53.184;8.216;2023-02-23T11:17:31;101028.13;;;10.47;100.00
1207;BME280;593;53.184;8.216;2023-02-23T11:20:09;101028.13;;;10.47;100.00
1207;BME280;593;53.184;8.216;2023-02-23T11:22:42;101015.91;;;10.45;100.00
1207;BME280;593;53.184;8.216;2023-02-23T11:25:20;101025.69;;;10.51;100.00
1207;BME280;593;53.184;8.216;2023-02-23T11:27:49;101027.59;;;10.50;100.00
1207;BME280;593;53.184;8.216;2023-02-23T11:30:23;101035.50;;;10.52;100.00
1207;BME280;593;53.184;8.216;2023-02-23T11:32:56;101027.06;;;10.48;100.00
1207;BME280;593;53.184;8.216;2023-02-23T11:37:48;101040.38;;;10.50;100.00
1207;BME280;593;53.184;8.216;2023-02-23T11:40:30;101034.41;;;10.53;100.00
1207;BME280;593;53.184;8.216;2023-02-23T11:43:08;101027.06;;;10.48;100.00
1207;BME280;593;53.184;8.216;2023-02-23T11:45:45;101032.22;;;10.50;100.00
1207;BME280;593;53.184;8.216;2023-02-23T11:48:20;101039.84;;;10.53;100.00
1207;BME280;593;53.184;8.216;2023-02-23T11:50:48;101033.03;;;10.55;100.00
1207;BME280;593;53.184;8.216;2023-02-23T11:53:16;101038.22;;;10.57;100.00
1207;BME280;593;53.184;8.216;2023-02-23T11:55:48;101030.06;;;10.57;100.00
1207;BME280;593;53.184;8.216;2023-02-23T12:01:12;101017.53;;;10.51;100.00
1207;BME280;593;53.184;8.216;2023-02-23T12:03:56;101027.06;;;10.58;100.00
1207;BME280;593;53.184;8.216;2023-02-23T12:06:48;101027.88;;;10.59;100.00
1207;BME280;593;53.184;8.216;2023-02-23T12:09:28;101024.34;;;10.58;100.00
1207;BME280;593;53.184;8.216;2023-02-23T12:12:01;101034.94;;;10.60;100.00
1207;BME280;593;53.184;8.216;2023-02-23T12:14:39;101030.31;;;10.60;100.00
1207;BME280;593;53.184;8.216;2023-02-23T12:17:26;101030.59;;;10.59;100.00
1207;BME280;593;53.184;8.216;2023-02-23T12:22:30;101037.38;;;10.66;100.00
1207;BME280;593;53.184;8.216;2023-02-23T12:25:10;101028.41;;;10.66;100.00
1207;BME280;593;53.184;8.216;2023-02-23T12:27:44;101034.38;;;10.68;100.00
1207;BME280;593;53.184;8.216;2023-02-23T12:30:37;101033.31;;;10.69;100.00
1207;BME280;593;53.184;8.216;2023-02-23T12:33:11;101024.03;;;10.70;100.00
1207;BME280;593;53.184;8.216;2023-02-23T12:38:53;101025.69;;;10.71;100.00
1207;BME280;593;53.184;8.216;2023-02-23T12:41:42;101021.88;;;10.72;100.00
1207;BME280;593;53.184;8.216;2023-02-23T12:44:21;101030.03;;;10.72;100.00
1207;BME280;593;53.184;8.216;2023-02-23T12:46:54;101035.50;;;10.72;100.00
1207;BME280;593;53.184;8.216;2023-02-23T12:49:31;101024.03;;;10.70;100.00
1207;BME280;593;53.184;8.216;2023-02-23T12:52:03;101032.19;;;10.70;100.00
1207;BME280;593;53.184;8.216;2023-02-23T12:54:33;101036.28;;;10.72;100.00
1207;BME280;593;53.184;8.216;2023-02-23T13:00:03;101032.47;;;10.73;100.00
1207;BME280;593;53.184;8.216;2023-02-23T13:08:01;101031.13;;;10.76;100.00
1207;BME280;593;53.184;8.216;2023-02-23T13:10:34;101026.50;;;10.76;100.00
1207;BME280;593;53.184;8.216;2023-02-23T13:16:16;101018.34;;;10.76;100.00
1207;BME280;593;53.184;8.216;2023-02-23T13:18:51;101022.94;;;10.76;100.00
1207;BME280;593;53.184;8.216;2023-02-23T13:24:12;101028.69;;;10.79;100.00
1207;BME280;593;53.184;8.216;2023-02-23T13:26:52;101031.66;;;10.78;100.00
1207;BME280;593;53.184;8.216;2023-02-23T13:29:46;101031.66;;;10.78;100.00
1207;BME280;593;53.184;8.216;2023-02-23T13:32:16;101017.53;;;10.71;100.00
1207;BME280;593;53.184;8.216;2023-02-23T13:34:55;101020.53;;;10.74;100.00
1207;BME280;593;53.184;8.216;2023-02-23T13:37:25;101020.78;;;10.73;100.00
1207;BME280;593;53.184;8.216;2023-02-23T13:40:10;101026.22;;;10.78;100.00
1207;BME280;593;53.184;8.216;2023-02-23T13:47:54;101015.06;;;10.74;100.00
1207;BME280;593;53.184;8.216;2023-02-23T13:50:46;101018.59;;;10.80;100.00
1207;BME280;593;53.184;8.216;2023-02-23T13:55:59;101018.59;;;10.80;100.00
1207;BME280;593;53.184;8.216;2023-02-23T13:58:29;101018.88;;;10.78;100.00
1207;BME280;593;53.184;8.216;2023-02-23T14:01:10;101021.03;;;10.81;100.00
1207;BME280;593;53.184;8.216;2023-02-23T14:03:46;101022.94;;;10.81;100.00
1207;BME280;593;53.184;8.216;2023-02-23T14:06:13;101017.78;;;10.79;100.00
1207;BME280;593;53.184;8.216;2023-02-23T14:08:41;101018.88;;;10.78;100.00
1207;BME280;593;53.184;8.216;2023-02-23T14:11:07;101024.59;;;10.82;100.00
1207;BME280;593;53.184;8.216;2023-02-23T14:13:38;101027.84;;;10.84;100.00
1207;BME280;593;53.184;8.216;2023-02-23T14:16:16;101022.41;;;10.84;100.00
1207;BME280;593;53.184;8.216;2023-02-23T14:24:24;101024.00;;;10.85;100.00
1207;BME280;593;53.184;8.216;2023-02-23T14:32:39;101024.00;;;10.85;100.00
1207;BME280;593;53.184;8.216;2023-02-23T14:35:35;101012.06;;;10.81;100.00
1207;BME280;593;53.184;8.216;2023-02-23T14:40:32;101030.03;;;10.87;100.00
1207;BME280;593;53.184;8.216;2023-02-23T14:43:00;101022.41;;;10.89;100.00
1207;BME280;593;53.184;8.216;2023-02-23T14:45:29;101022.41;;;10.89;100.00
1207;BME280;593;53.184;8.216;2023-02-23T14:48:11;101029.19;;;10.86;100.00
1207;BME280;593;53.184;8.216;2023-02-23T14:50:37;101029.19;;;10.86;100.00
1207;BME280;593;53.184;8.216;2023-02-23T14:53:06;101017.78;;;10.79;100.00
1207;BME280;593;53.184;8.216;2023-02-23T14:55:40;101029.47;;;10.80;100.00
1207;BME280;593;53.184;8.216;2023-02-23T14:58:25;101027.31;;;10.82;100.00
1207;BME280;593;53.184;8.216;2023-02-23T15:00:50;101034.13;;;10.79;100.00
1207;BME280;593;53.184;8.216;2023-02-23T15:03:16;101033.84;;;10.81;100.00
1207;BME280;593;53.184;8.216;2023-02-23T15:05:46;101034.91;;;10.80;100.00
1207;BME280;593;53.184;8.216;2023-02-23T15:08:14;101030.84;;;10.77;100.00
1207;BME280;593;53.184;8.216;2023-02-23T15:10:43;101044.44;;;10.77;100.00
1207;BME280;593;53.184;8.216;2023-02-23T15:13:30;101040.66;;;10.73;100.00
1207;BME280;593;53.184;8.216;2023-02-23T15:16:06;101048.00;;;10.58;100.00
1207;BME280;593;53.184;8.216;2023-02-23T15:18:36;101031.44;;;10.44;100.00